AZU9841 SBKP-LETL
Flight info
| Callsign | AZU9841 |
|---|---|
| Flight time | N/A |
| Altitude | 41000 |
| Route | KONVI UZ23 OGSOO UZ35 ISKAG UZ14 AMBET UN857 GUNET N857 DEREV/N0438F400 N857 LZR N871 KORAL UG5 SONSO UN871 OSDAM UM985 BARPA M985 MAMIS DCT MINGU |
| Aircraft | A339/H-SADE1E2E3GHIJ1J3J5M1P2RWXY/LB2D1 |
Departure
| Time | 2026-05-09 11:10 |
|---|---|
| Airport | Viracopos International Airport (SBKP) |
Arrival
| Time | N/A |
|---|---|
| Airport | Teruel Airport (LETL) |
| Time | Latitude | Longitude | Altitude | Speed | Heading |
|---|---|---|---|---|---|
| 2026-05-09 10:38 | -23.00688 | -47.14199 | 2175 ft | 0 kts | 218° |
| 2026-05-09 10:58 | -23.00683 | -47.14194 | 157 ft | 3 kts | 218° |
| 2026-05-09 10:58 | -23.00667 | -47.14181 | 979 ft | 3 kts | 218° |
| 2026-05-09 10:58 | -23.00651 | -47.14167 | 1063 ft | 3 kts | 218° |
| 2026-05-09 10:59 | -23.00635 | -47.14153 | 2164 ft | 3 kts | 218° |
| 2026-05-09 10:59 | -23.00621 | -47.14142 | 2164 ft | 3 kts | 232° |
| 2026-05-09 10:59 | -23.00610 | -47.14130 | 2164 ft | 3 kts | 265° |
| 2026-05-09 10:59 | -23.00609 | -47.14114 | 2164 ft | 3 kts | 300° |
| 2026-05-09 11:00 | -23.00619 | -47.14096 | 2164 ft | 3 kts | 308° |
| 2026-05-09 11:00 | -23.00625 | -47.14088 | 2164 ft | 0 kts | 307° |
| 2026-05-09 11:05 | -23.00624 | -47.14089 | 2164 ft | 1 kts | 307° |
| 2026-05-09 11:05 | -23.00616 | -47.14101 | 2164 ft | 3 kts | 307° |
| 2026-05-09 11:05 | -23.00597 | -47.14128 | 2164 ft | 5 kts | 307° |
| 2026-05-09 11:06 | -23.00570 | -47.14166 | 2173 ft | 7 kts | 307° |
| 2026-05-09 11:06 | -23.00537 | -47.14214 | 2164 ft | 9 kts | 307° |
| 2026-05-09 11:06 | -23.00498 | -47.14270 | 2165 ft | 10 kts | 307° |
| 2026-05-09 11:06 | -23.00452 | -47.14334 | 2165 ft | 11 kts | 307° |
| 2026-05-09 11:07 | -23.00401 | -47.14406 | 2166 ft | 13 kts | 308° |
| 2026-05-09 11:07 | -23.00345 | -47.14485 | 2167 ft | 14 kts | 308° |
| 2026-05-09 11:07 | -23.00282 | -47.14568 | 2170 ft | 15 kts | 309° |
| 2026-05-09 11:07 | -23.00218 | -47.14658 | 2167 ft | 16 kts | 307° |
| 2026-05-09 11:08 | -23.00149 | -47.14753 | 2166 ft | 16 kts | 308° |
| 2026-05-09 11:08 | -23.00052 | -47.14805 | 2171 ft | 16 kts | 353° |
| 2026-05-09 11:08 | -22.99970 | -47.14790 | 2168 ft | 10 kts | 11° |
| 2026-05-09 11:08 | -22.99912 | -47.14747 | 2164 ft | 11 kts | 48° |
| 2026-05-09 11:09 | -22.99879 | -47.14673 | 2168 ft | 11 kts | 82° |
| 2026-05-09 11:09 | -22.99900 | -47.14623 | 2166 ft | 0 kts | 123° |
| 2026-05-09 11:09 | -23.00073 | -47.14380 | 2165 ft | 84 kts | 129° |
| 2026-05-09 11:10 | -23.00595 | -47.13649 | 2167 ft | 157 kts | 128° |
| 2026-05-09 11:10 | -23.01359 | -47.12587 | 2453 ft | 186 kts | 128° |
| 2026-05-09 11:10 | -23.02130 | -47.11527 | 3330 ft | 176 kts | 128° |
| 2026-05-09 11:10 | -23.02899 | -47.10486 | 4135 ft | 182 kts | 130° |
| 2026-05-09 11:11 | -23.03719 | -47.09353 | 4593 ft | 200 kts | 131° |
| 2026-05-09 11:11 | -23.04500 | -47.08009 | 5069 ft | 225 kts | 114° |
| 2026-05-09 11:11 | -23.04699 | -47.06270 | 5467 ft | 248 kts | 79° |
| 2026-05-09 11:11 | -23.04080 | -47.04489 | 6027 ft | 251 kts | 47° |
| 2026-05-09 11:12 | -23.02812 | -47.03191 | 6598 ft | 255 kts | 29° |
| 2026-05-09 11:12 | -23.01319 | -47.02088 | 7137 ft | 264 kts | 28° |
| 2026-05-09 11:12 | -22.99760 | -47.01038 | 7718 ft | 270 kts | 24° |
| 2026-05-09 11:12 | -22.98135 | -46.99972 | 7935 ft | 277 kts | 27° |
| 2026-05-09 11:13 | -22.96552 | -46.98777 | 7992 ft | 277 kts | 30° |
| 2026-05-09 11:13 | -22.95008 | -46.97520 | 7998 ft | 277 kts | 31° |
| 2026-05-09 11:13 | -22.93483 | -46.96249 | 8004 ft | 276 kts | 31° |
| 2026-05-09 11:13 | -22.91951 | -46.94972 | 8005 ft | 278 kts | 31° |
| 2026-05-09 11:14 | -22.90418 | -46.93696 | 8001 ft | 279 kts | 32° |
| 2026-05-09 11:14 | -22.88933 | -46.92325 | 8196 ft | 282 kts | 35° |
| 2026-05-09 11:14 | -22.87444 | -46.90920 | 8873 ft | 283 kts | 34° |
| 2026-05-09 11:14 | -22.85968 | -46.89542 | 9581 ft | 287 kts | 35° |
| 2026-05-09 11:15 | -22.84441 | -46.88126 | 10276 ft | 291 kts | 35° |
| 2026-05-09 11:15 | -22.82854 | -46.86660 | 10556 ft | 310 kts | 35° |
| 2026-05-09 11:15 | -22.81154 | -46.85093 | 10750 ft | 331 kts | 35° |
| 2026-05-09 11:15 | -22.79362 | -46.83436 | 11084 ft | 343 kts | 36° |
| 2026-05-09 11:16 | -22.77550 | -46.81743 | 11788 ft | 344 kts | 37° |
| 2026-05-09 11:16 | -22.75828 | -46.79900 | 12376 ft | 350 kts | 41° |
| 2026-05-09 11:16 | -22.74114 | -46.77996 | 12984 ft | 354 kts | 41° |
| 2026-05-09 11:16 | -22.72403 | -46.76111 | 13621 ft | 357 kts | 41° |
| 2026-05-09 11:17 | -22.70654 | -46.74191 | 14219 ft | 360 kts | 41° |
| 2026-05-09 11:17 | -22.69048 | -46.72072 | 14749 ft | 371 kts | 54° |
| 2026-05-09 11:17 | -22.68072 | -46.69457 | 15333 ft | 382 kts | 72° |
| 2026-05-09 11:17 | -22.67821 | -46.66558 | 15887 ft | 391 kts | 86° |
| 2026-05-09 11:18 | -22.67894 | -46.63594 | 16367 ft | 396 kts | 89° |
| 2026-05-09 11:18 | -22.68019 | -46.60610 | 16868 ft | 398 kts | 89° |
| 2026-05-09 11:18 | -22.68121 | -46.57640 | 17372 ft | 401 kts | 89° |
| 2026-05-09 11:18 | -22.68188 | -46.54610 | 17886 ft | 404 kts | 88° |
| 2026-05-09 11:19 | -22.68229 | -46.51558 | 18388 ft | 407 kts | 88° |
| 2026-05-09 11:19 | -22.68257 | -46.48473 | 18801 ft | 412 kts | 87° |
| 2026-05-09 11:19 | -22.68280 | -46.45366 | 19298 ft | 414 kts | 87° |
| 2026-05-09 11:19 | -22.68302 | -46.42236 | 19688 ft | 418 kts | 87° |
| 2026-05-09 11:20 | -22.68324 | -46.39066 | 20101 ft | 423 kts | 87° |
| 2026-05-09 11:20 | -22.68347 | -46.35875 | 20551 ft | 426 kts | 87° |
| 2026-05-09 11:20 | -22.68370 | -46.32688 | 20919 ft | 431 kts | 87° |
| 2026-05-09 11:20 | -22.68393 | -46.29434 | 21351 ft | 434 kts | 87° |
| 2026-05-09 11:21 | -22.68417 | -46.26153 | 21756 ft | 437 kts | 87° |
| 2026-05-09 11:21 | -22.68431 | -46.22846 | 22169 ft | 439 kts | 86° |
| 2026-05-09 11:21 | -22.68018 | -46.19591 | 22587 ft | 435 kts | 71° |
| 2026-05-09 11:21 | -22.66917 | -46.16573 | 23044 ft | 430 kts | 57° |
| 2026-05-09 11:22 | -22.65198 | -46.13955 | 23457 ft | 424 kts | 43° |
| 2026-05-09 11:22 | -22.62991 | -46.11861 | 23827 ft | 422 kts | 32° |
| 2026-05-09 11:22 | -22.60618 | -46.10083 | 24384 ft | 421 kts | 30° |
| 2026-05-09 11:22 | -22.58195 | -46.08260 | 24729 ft | 426 kts | 31° |
| 2026-05-09 11:23 | -22.55805 | -46.06342 | 25191 ft | 429 kts | 33° |
| 2026-05-09 11:23 | -22.53439 | -46.04342 | 25579 ft | 434 kts | 34° |
| 2026-05-09 11:23 | -22.51064 | -46.02272 | 25955 ft | 438 kts | 34° |
| 2026-05-09 11:23 | -22.48729 | -46.00211 | 26361 ft | 441 kts | 34° |
| 2026-05-09 11:24 | -22.46347 | -45.98103 | 26719 ft | 444 kts | 35° |
| 2026-05-09 11:24 | -22.43945 | -45.95980 | 27079 ft | 448 kts | 34° |
| 2026-05-09 11:24 | -22.41527 | -45.93845 | 27438 ft | 451 kts | 34° |
| 2026-05-09 11:24 | -22.39086 | -45.91693 | 27768 ft | 454 kts | 34° |
| 2026-05-09 11:25 | -22.36632 | -45.89531 | 28122 ft | 457 kts | 34° |
| 2026-05-09 11:25 | -22.34155 | -45.87350 | 28441 ft | 460 kts | 34° |
| 2026-05-09 11:25 | -22.31700 | -45.85191 | 28802 ft | 463 kts | 34° |
| 2026-05-09 11:25 | -22.29196 | -45.82991 | 29128 ft | 466 kts | 34° |
| 2026-05-09 11:26 | -22.26676 | -45.80782 | 29397 ft | 469 kts | 34° |
| 2026-05-09 11:26 | -22.24124 | -45.78572 | 29763 ft | 471 kts | 34° |
| 2026-05-09 11:26 | -22.21550 | -45.76351 | 30055 ft | 475 kts | 34° |
| 2026-05-09 11:26 | -22.18958 | -45.74118 | 30248 ft | 480 kts | 34° |
| 2026-05-09 11:27 | -22.16351 | -45.71869 | 30691 ft | 480 kts | 34° |
| 2026-05-09 11:27 | -22.13735 | -45.69611 | 30960 ft | 484 kts | 34° |
| 2026-05-09 11:27 | -22.11133 | -45.67365 | 31276 ft | 487 kts | 34° |
| 2026-05-09 11:27 | -22.08479 | -45.65077 | 31583 ft | 490 kts | 34° |
| 2026-05-09 11:28 | -22.05808 | -45.62773 | 31893 ft | 493 kts | 34° |
| 2026-05-09 11:28 | -22.03122 | -45.60458 | 32170 ft | 496 kts | 34° |
| 2026-05-09 11:28 | -22.00420 | -45.58129 | 32413 ft | 500 kts | 34° |
| 2026-05-09 11:28 | -21.97698 | -45.55785 | 32673 ft | 502 kts | 34° |
| 2026-05-09 11:29 | -21.94961 | -45.53430 | 32832 ft | 505 kts | 34° |
| 2026-05-09 11:29 | -21.92212 | -45.51065 | 33045 ft | 506 kts | 34° |
| 2026-05-09 11:29 | -21.89500 | -45.48733 | 33268 ft | 507 kts | 34° |
| 2026-05-09 11:29 | -21.86732 | -45.46356 | 33385 ft | 509 kts | 34° |
| 2026-05-09 11:30 | -21.83957 | -45.43973 | 33540 ft | 511 kts | 34° |
| 2026-05-09 11:30 | -21.81182 | -45.41591 | 33717 ft | 511 kts | 34° |
| 2026-05-09 11:30 | -21.78406 | -45.39209 | 33877 ft | 511 kts | 34° |
| 2026-05-09 11:30 | -21.75622 | -45.36822 | 34024 ft | 512 kts | 34° |
| 2026-05-09 11:31 | -21.72841 | -45.34438 | 34227 ft | 511 kts | 34° |
| 2026-05-09 11:31 | -21.70058 | -45.32055 | 34408 ft | 511 kts | 34° |
| 2026-05-09 11:31 | -21.67315 | -45.29707 | 34592 ft | 511 kts | 34° |
| 2026-05-09 11:31 | -21.64542 | -45.27334 | 34770 ft | 510 kts | 34° |
| 2026-05-09 11:32 | -21.61764 | -45.24961 | 34970 ft | 509 kts | 34° |
| 2026-05-09 11:32 | -21.59004 | -45.22606 | 35288 ft | 505 kts | 35° |
| 2026-05-09 11:32 | -21.56257 | -45.20256 | 35429 ft | 505 kts | 35° |
| 2026-05-09 11:32 | -21.53503 | -45.17903 | 35584 ft | 506 kts | 34° |
| 2026-05-09 11:33 | -21.50750 | -45.15552 | 35733 ft | 506 kts | 34° |
| 2026-05-09 11:33 | -21.47992 | -45.13199 | 35913 ft | 506 kts | 34° |
| 2026-05-09 11:33 | -21.42525 | -45.08538 | 36275 ft | 505 kts | 34° |
| 2026-05-09 11:34 | -21.39780 | -45.06200 | 36465 ft | 504 kts | 34° |
| 2026-05-09 11:34 | -21.37027 | -45.03857 | 36621 ft | 505 kts | 34° |
| 2026-05-09 11:34 | -21.34279 | -45.01519 | 36784 ft | 505 kts | 34° |
| 2026-05-09 11:34 | -21.31521 | -44.99175 | 36891 ft | 506 kts | 34° |
| 2026-05-09 11:35 | -21.28766 | -44.96832 | 37104 ft | 505 kts | 34° |
| 2026-05-09 11:35 | -21.26015 | -44.94495 | 37266 ft | 505 kts | 34° |
| 2026-05-09 11:35 | -21.23299 | -44.92188 | 37408 ft | 505 kts | 34° |
| 2026-05-09 11:35 | -21.20549 | -44.89853 | 37574 ft | 505 kts | 34° |
| 2026-05-09 11:36 | -21.17790 | -44.87513 | 37744 ft | 505 kts | 34° |
| 2026-05-09 11:36 | -21.15037 | -44.85177 | 37894 ft | 505 kts | 34° |
| 2026-05-09 11:36 | -21.12283 | -44.82844 | 38043 ft | 505 kts | 34° |
| 2026-05-09 11:36 | -21.09529 | -44.80512 | 38193 ft | 505 kts | 34° |
| 2026-05-09 11:37 | -21.06770 | -44.78175 | 38301 ft | 506 kts | 34° |
| 2026-05-09 11:37 | -21.04007 | -44.75845 | 38456 ft | 505 kts | 33° |
| 2026-05-09 11:37 | -21.01216 | -44.73651 | 38583 ft | 504 kts | 31° |
| 2026-05-09 11:37 | -20.98347 | -44.71499 | 38718 ft | 504 kts | 30° |
| 2026-05-09 11:38 | -20.92594 | -44.67188 | 38956 ft | 505 kts | 31° |
| 2026-05-09 11:38 | -20.89732 | -44.65019 | 39098 ft | 505 kts | 31° |
| 2026-05-09 11:38 | -20.86866 | -44.62838 | 39221 ft | 505 kts | 31° |
| 2026-05-09 11:39 | -20.81141 | -44.58474 | 39471 ft | 505 kts | 31° |
| 2026-05-09 11:39 | -20.78280 | -44.56293 | 39586 ft | 505 kts | 31° |
| 2026-05-09 11:40 | -20.72597 | -44.51961 | 39760 ft | 506 kts | 31° |
| 2026-05-09 11:40 | -20.69730 | -44.49777 | 39885 ft | 506 kts | 31° |
| 2026-05-09 11:40 | -20.66868 | -44.47599 | 40020 ft | 505 kts | 31° |
| 2026-05-09 11:40 | -20.64007 | -44.45422 | 40132 ft | 505 kts | 30° |
| 2026-05-09 11:41 | -20.61150 | -44.43248 | 40281 ft | 504 kts | 30° |
| 2026-05-09 11:41 | -20.58292 | -44.41075 | 40386 ft | 504 kts | 30° |
| 2026-05-09 11:41 | -20.55435 | -44.38904 | 40523 ft | 504 kts | 30° |
| 2026-05-09 11:42 | -20.49757 | -44.34596 | 40648 ft | 507 kts | 31° |
| 2026-05-09 11:42 | -20.43964 | -44.30207 | 40629 ft | 513 kts | 31° |
| 2026-05-09 11:43 | -20.38205 | -44.25691 | 40839 ft | 514 kts | 32° |
| 2026-05-09 11:43 | -20.35349 | -44.23400 | 40944 ft | 514 kts | 32° |
| 2026-05-09 11:43 | -20.32495 | -44.21117 | 41062 ft | 513 kts | 32° |
| 2026-05-09 11:44 | -20.26820 | -44.16605 | 41209 ft | 512 kts | 32° |
| 2026-05-09 11:44 | -20.21111 | -44.12085 | 41211 ft | 510 kts | 32° |
| 2026-05-09 11:45 | -20.15409 | -44.07576 | 41210 ft | 511 kts | 32° |
| 2026-05-09 11:45 | -20.09958 | -44.03272 | 41211 ft | 512 kts | 32° |
| 2026-05-09 11:46 | -20.04228 | -43.98752 | 41205 ft | 514 kts | 32° |
| 2026-05-09 11:46 | -19.98508 | -43.94252 | 41213 ft | 514 kts | 31° |
| 2026-05-09 11:47 | -19.93110 | -43.89269 | 41211 ft | 521 kts | 46° |
| 2026-05-09 11:47 | -19.89254 | -43.82703 | 41211 ft | 529 kts | 65° |
| 2026-05-09 11:48 | -19.87435 | -43.75133 | 41214 ft | 534 kts | 84° |
| 2026-05-09 11:48 | -19.87800 | -43.67322 | 41210 ft | 534 kts | 98° |
| 2026-05-09 11:48 | -19.87976 | -43.63383 | 41205 ft | 535 kts | 87° |
| 2026-05-09 11:49 | -19.87589 | -43.59460 | 41206 ft | 534 kts | 77° |
| 2026-05-09 11:49 | -19.85029 | -43.52144 | 41210 ft | 527 kts | 56° |
| 2026-05-09 11:49 | -19.82918 | -43.48986 | 41213 ft | 521 kts | 45° |
| 2026-05-09 11:50 | -19.80362 | -43.46320 | 41211 ft | 512 kts | 34° |
| 2026-05-09 11:50 | -19.77441 | -43.44219 | 41211 ft | 503 kts | 23° |
| 2026-05-09 11:50 | -19.74365 | -43.42584 | 41208 ft | 502 kts | 21° |
| 2026-05-09 11:51 | -19.68275 | -43.38879 | 41211 ft | 507 kts | 28° |
| 2026-05-09 11:51 | -19.62520 | -43.34486 | 41210 ft | 511 kts | 32° |
| 2026-05-09 11:52 | -19.56879 | -43.29890 | 41206 ft | 512 kts | 34° |
| 2026-05-09 11:52 | -19.51263 | -43.25318 | 41211 ft | 512 kts | 34° |
| 2026-05-09 11:53 | -19.45624 | -43.20748 | 41211 ft | 510 kts | 34° |
| 2026-05-09 11:53 | -19.39979 | -43.16185 | 41212 ft | 510 kts | 34° |
| 2026-05-09 11:54 | -19.34333 | -43.11626 | 41211 ft | 510 kts | 34° |
| 2026-05-09 11:54 | -19.28721 | -43.07099 | 41211 ft | 511 kts | 34° |
| 2026-05-09 11:55 | -19.23076 | -43.02550 | 41212 ft | 509 kts | 33° |
| 2026-05-09 11:56 | -19.06180 | -42.88957 | 41209 ft | 511 kts | 33° |
| 2026-05-09 11:57 | -19.00535 | -42.84422 | 41211 ft | 510 kts | 33° |
| 2026-05-09 11:57 | -18.94868 | -42.79876 | 41210 ft | 511 kts | 33° |
| 2026-05-09 11:58 | -18.89206 | -42.75337 | 41211 ft | 512 kts | 33° |
| 2026-05-09 11:58 | -18.83571 | -42.70827 | 41212 ft | 512 kts | 33° |
| 2026-05-09 11:59 | -18.77904 | -42.66292 | 41209 ft | 511 kts | 33° |
| 2026-05-09 11:59 | -18.72244 | -42.61767 | 41204 ft | 510 kts | 33° |
| 2026-05-09 12:00 | -18.66583 | -42.57247 | 41203 ft | 510 kts | 33° |
| 2026-05-09 12:00 | -18.60944 | -42.52747 | 41202 ft | 510 kts | 33° |
| 2026-05-09 12:01 | -18.55326 | -42.48266 | 41201 ft | 509 kts | 33° |
| 2026-05-09 12:01 | -18.49674 | -42.43761 | 41206 ft | 509 kts | 33° |
| 2026-05-09 12:02 | -18.44023 | -42.39265 | 41140 ft | 511 kts | 34° |
| 2026-05-09 12:02 | -18.38326 | -42.34735 | 41158 ft | 515 kts | 34° |
| 2026-05-09 12:03 | -18.32625 | -42.30199 | 41156 ft | 513 kts | 34° |
| 2026-05-09 12:03 | -18.26954 | -42.25698 | 41156 ft | 516 kts | 34° |
| 2026-05-09 12:04 | -18.21212 | -42.21143 | 41156 ft | 517 kts | 34° |
| 2026-05-09 12:04 | -18.15497 | -42.16612 | 41156 ft | 512 kts | 34° |
| 2026-05-09 12:05 | -18.09791 | -42.12095 | 41159 ft | 515 kts | 34° |
| 2026-05-09 12:05 | -18.04113 | -42.07600 | 41158 ft | 513 kts | 34° |
| 2026-05-09 12:06 | -17.98392 | -42.03078 | 41157 ft | 515 kts | 34° |
| 2026-05-09 12:06 | -17.92673 | -41.98559 | 41157 ft | 514 kts | 34° |
| 2026-05-09 12:07 | -17.86953 | -41.94044 | 41160 ft | 515 kts | 34° |
| 2026-05-09 12:07 | -17.81243 | -41.89543 | 41164 ft | 517 kts | 34° |
| 2026-05-09 12:08 | -17.75502 | -41.85018 | 41158 ft | 515 kts | 34° |
| 2026-05-09 12:08 | -17.69762 | -41.80500 | 41158 ft | 516 kts | 34° |
| 2026-05-09 12:09 | -17.64036 | -41.75995 | 41156 ft | 514 kts | 34° |
| 2026-05-09 12:09 | -17.58357 | -41.71531 | 41156 ft | 514 kts | 33° |
| 2026-05-09 12:10 | -17.46876 | -41.62518 | 41159 ft | 516 kts | 34° |
| 2026-05-09 12:11 | -17.41118 | -41.58002 | 41159 ft | 518 kts | 34° |
| 2026-05-09 12:11 | -17.35403 | -41.53523 | 41155 ft | 515 kts | 34° |
| 2026-05-09 12:12 | -17.29652 | -41.49021 | 41186 ft | 517 kts | 34° |
| 2026-05-09 12:12 | -17.23879 | -41.44503 | 41184 ft | 519 kts | 34° |
| 2026-05-09 12:13 | -17.18100 | -41.39983 | 41183 ft | 518 kts | 34° |
| 2026-05-09 12:13 | -17.12367 | -41.35505 | 41179 ft | 518 kts | 34° |
| 2026-05-09 12:14 | -17.06590 | -41.30997 | 41181 ft | 518 kts | 34° |
| 2026-05-09 12:14 | -17.00807 | -41.26486 | 41180 ft | 519 kts | 34° |
| 2026-05-09 12:15 | -16.95021 | -41.21977 | 41180 ft | 519 kts | 34° |
| 2026-05-09 12:15 | -16.89235 | -41.17470 | 41187 ft | 519 kts | 34° |
| 2026-05-09 12:16 | -16.83488 | -41.12998 | 41190 ft | 519 kts | 34° |
| 2026-05-09 12:16 | -16.77697 | -41.08496 | 41190 ft | 519 kts | 33° |
| 2026-05-09 12:17 | -16.71933 | -41.04017 | 41184 ft | 516 kts | 34° |
| 2026-05-09 12:17 | -16.66172 | -40.99544 | 41182 ft | 515 kts | 34° |
| 2026-05-09 12:18 | -16.60454 | -40.95109 | 41185 ft | 516 kts | 34° |
| 2026-05-09 12:18 | -16.54675 | -40.90631 | 41184 ft | 520 kts | 34° |
| 2026-05-09 12:19 | -16.48878 | -40.86140 | 41188 ft | 518 kts | 34° |
| 2026-05-09 12:19 | -16.43090 | -40.81658 | 41185 ft | 518 kts | 33° |
| 2026-05-09 12:20 | -16.37351 | -40.77221 | 41194 ft | 517 kts | 33° |
| 2026-05-09 12:20 | -16.31579 | -40.72760 | 41184 ft | 517 kts | 33° |
| 2026-05-09 12:21 | -16.25807 | -40.68303 | 41181 ft | 516 kts | 33° |
| 2026-05-09 12:21 | -16.20042 | -40.63855 | 41187 ft | 516 kts | 33° |
| 2026-05-09 12:22 | -16.14276 | -40.59412 | 41129 ft | 515 kts | 34° |
| 2026-05-09 12:22 | -16.08585 | -40.55025 | 41131 ft | 512 kts | 34° |
| 2026-05-09 12:23 | -16.02842 | -40.50602 | 41129 ft | 515 kts | 34° |
| 2026-05-09 12:23 | -15.97105 | -40.46187 | 41129 ft | 513 kts | 34° |
| 2026-05-09 12:24 | -15.91349 | -40.41764 | 41128 ft | 514 kts | 34° |
| 2026-05-09 12:24 | -15.86567 | -40.38096 | 41131 ft | 514 kts | 34° |
| 2026-05-09 12:25 | -15.79875 | -40.32967 | 41134 ft | 514 kts | 34° |
| 2026-05-09 12:25 | -15.74126 | -40.28560 | 41134 ft | 514 kts | 34° |
| 2026-05-09 12:26 | -15.69343 | -40.24898 | 41134 ft | 514 kts | 34° |
| 2026-05-09 12:26 | -15.63588 | -40.20495 | 41131 ft | 514 kts | 34° |
| 2026-05-09 12:27 | -15.57837 | -40.16099 | 41125 ft | 514 kts | 34° |
| 2026-05-09 12:27 | -15.52080 | -40.11709 | 41129 ft | 513 kts | 34° |
| 2026-05-09 12:28 | -15.46365 | -40.07356 | 41133 ft | 513 kts | 34° |
| 2026-05-09 12:28 | -15.40606 | -40.02972 | 41134 ft | 513 kts | 34° |
| 2026-05-09 12:29 | -15.34849 | -39.98591 | 41135 ft | 513 kts | 34° |
| 2026-05-09 12:29 | -15.29090 | -39.94213 | 41134 ft | 513 kts | 34° |
| 2026-05-09 12:30 | -15.23373 | -39.89870 | 41133 ft | 513 kts | 34° |
| 2026-05-09 12:30 | -15.14736 | -39.83314 | 41132 ft | 513 kts | 34° |
| 2026-05-09 12:31 | -15.06102 | -39.76766 | 41129 ft | 513 kts | 34° |
| 2026-05-09 12:32 | -15.00346 | -39.72406 | 41107 ft | 513 kts | 34° |
| 2026-05-09 12:32 | -14.94663 | -39.68111 | 41101 ft | 509 kts | 34° |
| 2026-05-09 12:33 | -14.88928 | -39.63796 | 41101 ft | 509 kts | 34° |
| 2026-05-09 12:33 | -14.83219 | -39.59499 | 41100 ft | 508 kts | 34° |
| 2026-05-09 12:34 | -14.77487 | -39.55189 | 41099 ft | 513 kts | 34° |
| 2026-05-09 12:34 | -14.71770 | -39.50889 | 41100 ft | 510 kts | 34° |
| 2026-05-09 12:35 | -14.66041 | -39.46586 | 41102 ft | 510 kts | 34° |
| 2026-05-09 12:35 | -14.60301 | -39.42277 | 41104 ft | 508 kts | 34° |
| 2026-05-09 12:36 | -14.54588 | -39.37992 | 41097 ft | 508 kts | 34° |
| 2026-05-09 12:36 | -14.48907 | -39.33734 | 41100 ft | 508 kts | 34° |
| 2026-05-09 12:37 | -14.43186 | -39.29447 | 41103 ft | 508 kts | 34° |
| 2026-05-09 12:37 | -14.37461 | -39.25161 | 41105 ft | 508 kts | 34° |
| 2026-05-09 12:38 | -14.31748 | -39.20885 | 41097 ft | 507 kts | 34° |
| 2026-05-09 12:38 | -14.26083 | -39.16648 | 41094 ft | 506 kts | 34° |
| 2026-05-09 12:39 | -14.20386 | -39.12390 | 41092 ft | 506 kts | 34° |
| 2026-05-09 12:39 | -14.14691 | -39.08138 | 41093 ft | 505 kts | 34° |
| 2026-05-09 12:40 | -14.09012 | -39.03900 | 41089 ft | 505 kts | 34° |
| 2026-05-09 12:40 | -14.03319 | -38.99654 | 41091 ft | 505 kts | 34° |
| 2026-05-09 12:41 | -13.97622 | -38.95407 | 41099 ft | 506 kts | 33° |
| 2026-05-09 12:41 | -13.91961 | -38.91190 | 41100 ft | 506 kts | 33° |
| 2026-05-09 12:42 | -13.86261 | -38.86947 | 41110 ft | 505 kts | 34° |
| 2026-05-09 12:42 | -13.80589 | -38.82728 | 41132 ft | 502 kts | 34° |
| 2026-05-09 12:43 | -13.74922 | -38.78513 | 41129 ft | 503 kts | 34° |
| 2026-05-09 12:43 | -13.69245 | -38.74294 | 41130 ft | 503 kts | 34° |
| 2026-05-09 12:44 | -13.63611 | -38.70109 | 41129 ft | 503 kts | 34° |
| 2026-05-09 12:44 | -13.57938 | -38.65899 | 41129 ft | 503 kts | 34° |
| 2026-05-09 12:45 | -13.52264 | -38.61690 | 41129 ft | 503 kts | 34° |
| 2026-05-09 12:45 | -13.46587 | -38.57482 | 41130 ft | 503 kts | 34° |
| 2026-05-09 12:46 | -13.40950 | -38.53305 | 41130 ft | 503 kts | 34° |
| 2026-05-09 12:46 | -13.35270 | -38.49099 | 41130 ft | 503 kts | 34° |
| 2026-05-09 12:47 | -13.29592 | -38.44898 | 41129 ft | 503 kts | 34° |
| 2026-05-09 12:47 | -13.23917 | -38.40700 | 41130 ft | 503 kts | 34° |
| 2026-05-09 12:48 | -13.18276 | -38.36530 | 41130 ft | 503 kts | 34° |
| 2026-05-09 12:48 | -13.12596 | -38.32334 | 41129 ft | 503 kts | 34° |
| 2026-05-09 12:49 | -13.06918 | -38.28141 | 41130 ft | 503 kts | 34° |
| 2026-05-09 12:49 | -13.01233 | -38.23949 | 41130 ft | 503 kts | 34° |
| 2026-05-09 12:50 | -12.95548 | -38.19758 | 41130 ft | 503 kts | 34° |
| 2026-05-09 12:50 | -12.89900 | -38.15597 | 41130 ft | 503 kts | 34° |
| 2026-05-09 12:51 | -12.84219 | -38.11413 | 41131 ft | 503 kts | 34° |
| 2026-05-09 12:51 | -12.78532 | -38.07227 | 41130 ft | 503 kts | 34° |
| 2026-05-09 12:52 | -12.72845 | -38.03044 | 41083 ft | 504 kts | 34° |
| 2026-05-09 12:52 | -12.67177 | -37.98878 | 41071 ft | 505 kts | 34° |
| 2026-05-09 12:53 | -12.61463 | -37.94678 | 41073 ft | 506 kts | 34° |
| 2026-05-09 12:53 | -12.55747 | -37.90481 | 41075 ft | 506 kts | 34° |
| 2026-05-09 12:54 | -12.50029 | -37.86284 | 41077 ft | 506 kts | 34° |
| 2026-05-09 12:54 | -12.44349 | -37.82118 | 41075 ft | 506 kts | 34° |
| 2026-05-09 12:55 | -12.38628 | -37.77923 | 41077 ft | 506 kts | 34° |
| 2026-05-09 12:55 | -12.32905 | -37.73730 | 41078 ft | 506 kts | 34° |
| 2026-05-09 12:56 | -12.27185 | -37.69541 | 41074 ft | 506 kts | 34° |
| 2026-05-09 12:56 | -12.21459 | -37.65350 | 41079 ft | 506 kts | 34° |
| 2026-05-09 12:57 | -12.15772 | -37.61190 | 41078 ft | 506 kts | 34° |
| 2026-05-09 12:57 | -12.10047 | -37.57004 | 41078 ft | 506 kts | 34° |
| 2026-05-09 12:58 | -12.04322 | -37.52820 | 41078 ft | 506 kts | 34° |
| 2026-05-09 12:58 | -11.98634 | -37.48667 | 41076 ft | 506 kts | 34° |
| 2026-05-09 12:59 | -11.92905 | -37.44484 | 41075 ft | 506 kts | 34° |
| 2026-05-09 12:59 | -11.87173 | -37.40320 | 41077 ft | 506 kts | 33° |
| 2026-05-09 13:00 | -11.81434 | -37.36168 | 41074 ft | 506 kts | 33° |
| 2026-05-09 13:00 | -11.75691 | -37.32012 | 41074 ft | 506 kts | 33° |
| 2026-05-09 13:01 | -11.69994 | -37.27889 | 41076 ft | 506 kts | 33° |
| 2026-05-09 13:01 | -11.64249 | -37.23733 | 41077 ft | 506 kts | 33° |
| 2026-05-09 13:02 | -11.58508 | -37.19583 | 41067 ft | 506 kts | 33° |
| 2026-05-09 13:02 | -11.52828 | -37.15472 | 41048 ft | 495 kts | 32° |
| 2026-05-09 13:03 | -11.47235 | -37.11436 | 41048 ft | 497 kts | 32° |
| 2026-05-09 13:03 | -11.41586 | -37.07362 | 41046 ft | 497 kts | 32° |
| 2026-05-09 13:04 | -11.35938 | -37.03287 | 41047 ft | 497 kts | 32° |
| 2026-05-09 13:04 | -11.30292 | -36.99216 | 41048 ft | 497 kts | 32° |
| 2026-05-09 13:05 | -11.24679 | -36.95170 | 41048 ft | 497 kts | 32° |
| 2026-05-09 13:05 | -11.19031 | -36.91101 | 41048 ft | 497 kts | 32° |
| 2026-05-09 13:06 | -11.13380 | -36.87031 | 41048 ft | 497 kts | 32° |
| 2026-05-09 13:06 | -11.07770 | -36.82994 | 41050 ft | 497 kts | 32° |
| 2026-05-09 13:07 | -11.02120 | -36.78929 | 41048 ft | 497 kts | 32° |
| 2026-05-09 13:07 | -10.96466 | -36.74864 | 41048 ft | 497 kts | 32° |
| 2026-05-09 13:08 | -10.90818 | -36.70805 | 41049 ft | 497 kts | 32° |
| 2026-05-09 13:08 | -10.85162 | -36.66742 | 41050 ft | 497 kts | 32° |
| 2026-05-09 13:09 | -10.79540 | -36.62715 | 41049 ft | 497 kts | 32° |
| 2026-05-09 13:09 | -10.73870 | -36.58683 | 41046 ft | 497 kts | 32° |
| 2026-05-09 13:10 | -10.68202 | -36.54651 | 41046 ft | 497 kts | 32° |
| 2026-05-09 13:10 | -10.62538 | -36.50622 | 41048 ft | 497 kts | 32° |
| 2026-05-09 13:11 | -10.56866 | -36.46589 | 41048 ft | 497 kts | 32° |
| 2026-05-09 13:11 | -10.51237 | -36.42587 | 41048 ft | 497 kts | 32° |
| 2026-05-09 13:12 | -10.45567 | -36.38558 | 41046 ft | 497 kts | 32° |
| 2026-05-09 13:12 | -10.39900 | -36.34533 | 41049 ft | 497 kts | 32° |
| 2026-05-09 13:13 | -10.34230 | -36.30508 | 41048 ft | 497 kts | 32° |
| 2026-05-09 13:13 | -10.28600 | -36.26513 | 41048 ft | 497 kts | 32° |
| 2026-05-09 13:14 | -10.22933 | -36.22494 | 41048 ft | 497 kts | 32° |
| 2026-05-09 13:16 | -10.00284 | -36.06447 | 41048 ft | 497 kts | 32° |
| 2026-05-09 13:16 | -9.94612 | -36.02433 | 41049 ft | 497 kts | 32° |
| 2026-05-09 13:17 | -9.88940 | -35.98421 | 41048 ft | 497 kts | 32° |
| 2026-05-09 13:17 | -9.83265 | -35.94408 | 41049 ft | 497 kts | 32° |
| 2026-05-09 13:18 | -9.77586 | -35.90394 | 41046 ft | 497 kts | 32° |
| 2026-05-09 13:18 | -9.71951 | -35.86413 | 41054 ft | 497 kts | 32° |
| 2026-05-09 13:19 | -9.66270 | -35.82402 | 41047 ft | 497 kts | 32° |
| 2026-05-09 13:19 | -9.60597 | -35.78396 | 41049 ft | 497 kts | 32° |
| 2026-05-09 13:20 | -9.54918 | -35.74390 | 41048 ft | 497 kts | 32° |
| 2026-05-09 13:20 | -9.49278 | -35.70411 | 41050 ft | 497 kts | 32° |
| 2026-05-09 13:21 | -9.43600 | -35.66409 | 41048 ft | 497 kts | 32° |
| 2026-05-09 13:21 | -9.37919 | -35.62405 | 41045 ft | 497 kts | 32° |
| 2026-05-09 13:22 | -9.32240 | -35.58405 | 41042 ft | 497 kts | 32° |
| 2026-05-09 13:22 | -9.26648 | -35.54466 | 41030 ft | 491 kts | 32° |
| 2026-05-09 13:23 | -9.12572 | -35.44563 | 41010 ft | 493 kts | 32° |
| 2026-05-09 13:24 | -9.06937 | -35.40600 | 41010 ft | 493 kts | 32° |
| 2026-05-09 13:24 | -9.01348 | -35.36672 | 41012 ft | 492 kts | 32° |
| 2026-05-09 13:25 | -8.95727 | -35.32723 | 41012 ft | 492 kts | 32° |
| 2026-05-09 13:26 | -8.87300 | -35.26805 | 41013 ft | 492 kts | 32° |
| 2026-05-09 13:26 | -8.81678 | -35.22859 | 41017 ft | 491 kts | 32° |
| 2026-05-09 13:27 | -8.76103 | -35.18946 | 41011 ft | 492 kts | 32° |
| 2026-05-09 13:27 | -8.70484 | -35.15005 | 41011 ft | 492 kts | 32° |
| 2026-05-09 13:28 | -8.64861 | -35.11062 | 41014 ft | 492 kts | 32° |
| 2026-05-09 13:28 | -8.59239 | -35.07122 | 41012 ft | 492 kts | 32° |
| 2026-05-09 13:29 | -8.53659 | -35.03211 | 41027 ft | 492 kts | 32° |
| 2026-05-09 13:29 | -8.48033 | -34.99270 | 41029 ft | 492 kts | 32° |
| 2026-05-09 13:30 | -8.42410 | -34.95334 | 41011 ft | 492 kts | 32° |
| 2026-05-09 13:30 | -8.36778 | -34.91392 | 41005 ft | 492 kts | 32° |
| 2026-05-09 13:31 | -8.31187 | -34.87480 | 41009 ft | 492 kts | 32° |
| 2026-05-09 13:31 | -8.25561 | -34.83545 | 41031 ft | 492 kts | 32° |
| 2026-05-09 13:32 | -8.19933 | -34.79611 | 41017 ft | 492 kts | 32° |
| 2026-05-09 13:32 | -8.11874 | -34.73357 | 40995 ft | 487 kts | 36° |
| 2026-05-09 13:33 | -8.06599 | -34.69122 | 40994 ft | 488 kts | 36° |
| 2026-05-09 13:33 | -8.01288 | -34.64865 | 40995 ft | 487 kts | 36° |
| 2026-05-09 13:34 | -7.95980 | -34.60612 | 40993 ft | 487 kts | 36° |
| 2026-05-09 13:34 | -7.90668 | -34.56356 | 40993 ft | 487 kts | 36° |
| 2026-05-09 13:35 | -7.85393 | -34.52133 | 40993 ft | 487 kts | 36° |
| 2026-05-09 13:35 | -7.80081 | -34.47880 | 40993 ft | 487 kts | 36° |
| 2026-05-09 13:36 | -7.74578 | -34.43931 | 40991 ft | 484 kts | 28° |
| 2026-05-09 13:36 | -7.68637 | -34.40758 | 40991 ft | 483 kts | 24° |
| 2026-05-09 13:37 | -7.62699 | -34.37680 | 40993 ft | 483 kts | 25° |
| 2026-05-09 13:37 | -7.56725 | -34.34569 | 40991 ft | 483 kts | 25° |
| 2026-05-09 13:38 | -7.50748 | -34.31459 | 40993 ft | 483 kts | 25° |
| 2026-05-09 13:38 | -7.44777 | -34.28354 | 40992 ft | 483 kts | 25° |
| 2026-05-09 13:39 | -7.38835 | -34.25266 | 40993 ft | 483 kts | 25° |
| 2026-05-09 13:39 | -7.32860 | -34.22162 | 40994 ft | 483 kts | 25° |
| 2026-05-09 13:40 | -7.26882 | -34.19057 | 40994 ft | 483 kts | 25° |
| 2026-05-09 13:40 | -7.20900 | -34.15950 | 40994 ft | 483 kts | 25° |
| 2026-05-09 13:41 | -7.14963 | -34.12868 | 40994 ft | 483 kts | 25° |
| 2026-05-09 13:41 | -7.08985 | -34.09766 | 40994 ft | 483 kts | 25° |
| 2026-05-09 13:42 | -7.03001 | -34.06663 | 40984 ft | 484 kts | 25° |
| 2026-05-09 13:42 | -6.97006 | -34.03553 | 40987 ft | 485 kts | 25° |
| 2026-05-09 13:43 | -6.91047 | -34.00463 | 40991 ft | 485 kts | 25° |
| 2026-05-09 13:43 | -6.85044 | -33.97351 | 40992 ft | 486 kts | 25° |
| 2026-05-09 13:44 | -6.79035 | -33.94237 | 40994 ft | 486 kts | 25° |
| 2026-05-09 13:44 | -6.73023 | -33.91122 | 40995 ft | 486 kts | 25° |
| 2026-05-09 13:45 | -6.67054 | -33.88031 | 40995 ft | 486 kts | 25° |
| 2026-05-09 13:45 | -6.61041 | -33.84918 | 40995 ft | 486 kts | 25° |
| 2026-05-09 13:46 | -6.55033 | -33.81807 | 40996 ft | 486 kts | 25° |
| 2026-05-09 13:46 | -6.49017 | -33.78694 | 40997 ft | 486 kts | 25° |
| 2026-05-09 13:47 | -6.43045 | -33.75605 | 40995 ft | 486 kts | 25° |
| 2026-05-09 13:47 | -6.37035 | -33.72496 | 40995 ft | 486 kts | 25° |
| 2026-05-09 13:48 | -6.31022 | -33.69387 | 40995 ft | 486 kts | 25° |
| 2026-05-09 13:48 | -6.25009 | -33.66279 | 40995 ft | 486 kts | 25° |
| 2026-05-09 13:49 | -6.19040 | -33.63194 | 40996 ft | 486 kts | 25° |
| 2026-05-09 13:49 | -6.13027 | -33.60087 | 40996 ft | 486 kts | 25° |
| 2026-05-09 13:50 | -6.07018 | -33.56983 | 40993 ft | 486 kts | 25° |
| 2026-05-09 13:50 | -6.01004 | -33.53878 | 40994 ft | 486 kts | 25° |
| 2026-05-09 13:51 | -5.94993 | -33.50774 | 40994 ft | 486 kts | 25° |
| 2026-05-09 13:51 | -5.89026 | -33.47694 | 40995 ft | 486 kts | 25° |
| 2026-05-09 13:52 | -5.83014 | -33.44594 | 40992 ft | 486 kts | 25° |
| 2026-05-09 13:52 | -5.76995 | -33.41488 | 40992 ft | 486 kts | 25° |
| 2026-05-09 13:53 | -5.70981 | -33.38385 | 40993 ft | 486 kts | 25° |
| 2026-05-09 13:53 | -5.65004 | -33.35303 | 40993 ft | 486 kts | 25° |
| 2026-05-09 13:54 | -5.58984 | -33.32200 | 40994 ft | 486 kts | 25° |
| 2026-05-09 13:54 | -5.52967 | -33.29098 | 40993 ft | 486 kts | 25° |
| 2026-05-09 13:55 | -5.46947 | -33.25996 | 40994 ft | 486 kts | 25° |
| 2026-05-09 13:55 | -5.40968 | -33.22916 | 40994 ft | 486 kts | 25° |
| 2026-05-09 13:56 | -5.34950 | -33.19816 | 40994 ft | 486 kts | 25° |
| 2026-05-09 13:56 | -5.28931 | -33.16717 | 40994 ft | 486 kts | 25° |
| 2026-05-09 13:57 | -5.22907 | -33.13615 | 40994 ft | 486 kts | 25° |
| 2026-05-09 13:57 | -5.16929 | -33.10538 | 40995 ft | 486 kts | 25° |
| 2026-05-09 13:58 | -5.10910 | -33.07441 | 40995 ft | 486 kts | 25° |
| 2026-05-09 13:58 | -5.04890 | -33.04343 | 40993 ft | 486 kts | 25° |
| 2026-05-09 13:59 | -4.98869 | -33.01246 | 40994 ft | 486 kts | 25° |
| 2026-05-09 13:59 | -4.92886 | -32.98169 | 40994 ft | 486 kts | 25° |
| 2026-05-09 14:00 | -4.88861 | -32.96100 | 40993 ft | 486 kts | 25° |
| 2026-05-09 14:00 | -4.80848 | -32.91980 | 40994 ft | 486 kts | 25° |
| 2026-05-09 14:01 | -4.74828 | -32.88886 | 40993 ft | 486 kts | 25° |
| 2026-05-09 14:01 | -4.68847 | -32.85812 | 40993 ft | 486 kts | 25° |
| 2026-05-09 14:02 | -4.62848 | -32.82731 | 40964 ft | 480 kts | 25° |
| 2026-05-09 14:02 | -4.56966 | -32.79706 | 40971 ft | 474 kts | 25° |
| 2026-05-09 14:03 | -4.51082 | -32.76673 | 40970 ft | 476 kts | 25° |
| 2026-05-09 14:03 | -4.45194 | -32.73638 | 40965 ft | 476 kts | 25° |
| 2026-05-09 14:04 | -4.39341 | -32.70623 | 40962 ft | 476 kts | 25° |
| 2026-05-09 14:04 | -4.33457 | -32.67592 | 40964 ft | 476 kts | 25° |
| 2026-05-09 14:05 | -4.27566 | -32.64558 | 40974 ft | 476 kts | 25° |
| 2026-05-09 14:05 | -4.21672 | -32.61524 | 40967 ft | 476 kts | 25° |
| 2026-05-09 14:06 | -4.15819 | -32.58511 | 40962 ft | 476 kts | 25° |
| 2026-05-09 14:06 | -4.09930 | -32.55479 | 40968 ft | 476 kts | 25° |
| 2026-05-09 14:07 | -4.04038 | -32.52447 | 40967 ft | 476 kts | 25° |
| 2026-05-09 14:07 | -3.98146 | -32.49415 | 40972 ft | 476 kts | 25° |
| 2026-05-09 14:08 | -3.92292 | -32.46404 | 40962 ft | 476 kts | 25° |
| 2026-05-09 14:08 | -3.86404 | -32.43375 | 40965 ft | 476 kts | 25° |
| 2026-05-09 14:09 | -3.80527 | -32.40305 | 40969 ft | 476 kts | 26° |
| 2026-05-09 14:09 | -3.74709 | -32.37217 | 40971 ft | 476 kts | 26° |
| 2026-05-09 14:10 | -3.65921 | -32.32570 | 40963 ft | 476 kts | 26° |
| 2026-05-09 14:11 | -3.60060 | -32.29476 | 40962 ft | 476 kts | 26° |
| 2026-05-09 14:11 | -3.54199 | -32.26384 | 40970 ft | 476 kts | 26° |
| 2026-05-09 14:12 | -3.48379 | -32.23314 | 40984 ft | 476 kts | 26° |
| 2026-05-09 14:12 | -3.42495 | -32.20211 | 40994 ft | 482 kts | 26° |
| 2026-05-09 14:13 | -3.36522 | -32.17061 | 40993 ft | 489 kts | 27° |
| 2026-05-09 14:15 | -3.12406 | -32.04485 | 40994 ft | 489 kts | 27° |
| 2026-05-09 14:15 | -3.06357 | -32.01355 | 40994 ft | 489 kts | 27° |
| 2026-05-09 14:16 | -3.00352 | -31.98246 | 40994 ft | 489 kts | 27° |
| 2026-05-09 14:16 | -2.94300 | -31.95114 | 40994 ft | 489 kts | 27° |
| 2026-05-09 14:17 | -2.88255 | -31.91986 | 40994 ft | 489 kts | 27° |
| 2026-05-09 14:17 | -2.82202 | -31.88854 | 40994 ft | 489 kts | 27° |
| 2026-05-09 14:18 | -2.76192 | -31.85745 | 40994 ft | 489 kts | 27° |
| 2026-05-09 14:18 | -2.70142 | -31.82615 | 40994 ft | 490 kts | 27° |
| 2026-05-09 14:19 | -2.64095 | -31.79487 | 40994 ft | 489 kts | 27° |
| 2026-05-09 14:19 | -2.58045 | -31.76358 | 40994 ft | 489 kts | 27° |
| 2026-05-09 14:20 | -2.51998 | -31.73231 | 40994 ft | 489 kts | 27° |
| 2026-05-09 14:20 | -2.45985 | -31.70121 | 40994 ft | 489 kts | 27° |
| 2026-05-09 14:21 | -2.36912 | -31.65429 | 40994 ft | 489 kts | 27° |
| 2026-05-09 14:21 | -2.30864 | -31.62302 | 40994 ft | 489 kts | 27° |
| 2026-05-09 14:22 | -2.24854 | -31.59195 | 40975 ft | 489 kts | 27° |
| 2026-05-09 14:22 | -2.18814 | -31.56073 | 40974 ft | 488 kts | 27° |
| 2026-05-09 14:23 | -2.12780 | -31.52955 | 40972 ft | 488 kts | 27° |
| 2026-05-09 14:23 | -2.06752 | -31.49839 | 40971 ft | 487 kts | 27° |
| 2026-05-09 14:24 | -2.00733 | -31.46728 | 40971 ft | 487 kts | 27° |
| 2026-05-09 14:24 | -1.94752 | -31.43638 | 40963 ft | 487 kts | 27° |
| 2026-05-09 14:25 | -1.88730 | -31.40527 | 40964 ft | 487 kts | 27° |
| 2026-05-09 14:25 | -1.82715 | -31.37419 | 40964 ft | 487 kts | 27° |
| 2026-05-09 14:26 | -1.76690 | -31.34306 | 40964 ft | 487 kts | 27° |
| 2026-05-09 14:26 | -1.70704 | -31.31214 | 40972 ft | 488 kts | 27° |
| 2026-05-09 14:27 | -1.64677 | -31.28102 | 40972 ft | 488 kts | 27° |
| 2026-05-09 14:27 | -1.58715 | -31.25022 | 40972 ft | 487 kts | 27° |
| 2026-05-09 14:28 | -1.52630 | -31.21880 | 40964 ft | 487 kts | 27° |
| 2026-05-09 14:28 | -1.46650 | -31.18792 | 40964 ft | 487 kts | 27° |
| 2026-05-09 14:29 | -1.40633 | -31.15685 | 40963 ft | 487 kts | 27° |
| 2026-05-09 14:29 | -1.34613 | -31.12577 | 40964 ft | 487 kts | 27° |
| 2026-05-09 14:30 | -1.28595 | -31.09470 | 40963 ft | 487 kts | 27° |
| 2026-05-09 14:30 | -1.22615 | -31.06382 | 40964 ft | 487 kts | 27° |
| 2026-05-09 14:31 | -1.16593 | -31.03274 | 40964 ft | 487 kts | 27° |
| 2026-05-09 14:31 | -1.10578 | -31.00168 | 40966 ft | 487 kts | 27° |
| 2026-05-09 14:32 | -1.04541 | -30.97055 | 40962 ft | 490 kts | 28° |
| 2026-05-09 14:32 | -0.98534 | -30.93954 | 40963 ft | 489 kts | 28° |
| 2026-05-09 14:33 | -0.92491 | -30.90833 | 40968 ft | 489 kts | 28° |
| 2026-05-09 14:33 | -0.86448 | -30.87708 | 40972 ft | 489 kts | 28° |
| 2026-05-09 14:34 | -0.80406 | -30.84583 | 40964 ft | 489 kts | 28° |
| 2026-05-09 14:34 | -0.74408 | -30.81481 | 40962 ft | 489 kts | 28° |
| 2026-05-09 14:35 | -0.68363 | -30.78355 | 40969 ft | 489 kts | 28° |
| 2026-05-09 14:35 | -0.62317 | -30.75229 | 40970 ft | 489 kts | 28° |
| 2026-05-09 14:36 | -0.56272 | -30.72104 | 40963 ft | 489 kts | 28° |
| 2026-05-09 14:36 | -0.50274 | -30.69002 | 40964 ft | 489 kts | 28° |
| 2026-05-09 14:37 | -0.44228 | -30.65877 | 40971 ft | 489 kts | 28° |
| 2026-05-09 14:37 | -0.38179 | -30.62749 | 40968 ft | 489 kts | 28° |
| 2026-05-09 14:38 | -0.32137 | -30.59625 | 40965 ft | 489 kts | 28° |
| 2026-05-09 14:38 | -0.26118 | -30.56514 | 40962 ft | 489 kts | 28° |
| 2026-05-09 14:39 | -0.20093 | -30.53399 | 40968 ft | 489 kts | 28° |
| 2026-05-09 14:39 | -0.14048 | -30.50274 | 40971 ft | 489 kts | 28° |
| 2026-05-09 14:40 | -0.08001 | -30.47147 | 40963 ft | 489 kts | 28° |
| 2026-05-09 14:40 | -0.01960 | -30.44025 | 40963 ft | 489 kts | 28° |
| 2026-05-09 14:41 | 0.04043 | -30.40921 | 40971 ft | 489 kts | 28° |
| 2026-05-09 14:41 | 0.10087 | -30.37796 | 40972 ft | 489 kts | 28° |
| 2026-05-09 14:42 | 0.16133 | -30.34669 | 40960 ft | 490 kts | 28° |
| 2026-05-09 14:42 | 0.22173 | -30.31543 | 40964 ft | 491 kts | 27° |
| 2026-05-09 14:43 | 0.28227 | -30.28408 | 40977 ft | 490 kts | 26° |
| 2026-05-09 14:43 | 0.34236 | -30.25298 | 40969 ft | 481 kts | 26° |
| 2026-05-09 14:44 | 0.40139 | -30.22245 | 40972 ft | 475 kts | 26° |
| 2026-05-09 14:44 | 0.45938 | -30.19247 | 40963 ft | 472 kts | 26° |
| 2026-05-09 14:45 | 0.51778 | -30.16227 | 40962 ft | 473 kts | 26° |
| 2026-05-09 14:45 | 0.57621 | -30.13204 | 40968 ft | 473 kts | 26° |
| 2026-05-09 14:46 | 0.63462 | -30.10182 | 40969 ft | 473 kts | 26° |
| 2026-05-09 14:46 | 0.69265 | -30.07180 | 40963 ft | 473 kts | 26° |
| 2026-05-09 14:47 | 0.75103 | -30.04160 | 40963 ft | 473 kts | 26° |
| 2026-05-09 14:47 | 0.80946 | -30.01137 | 40968 ft | 473 kts | 26° |
| 2026-05-09 14:48 | 0.86785 | -29.98116 | 40970 ft | 473 kts | 26° |
| 2026-05-09 14:48 | 0.92590 | -29.95112 | 40963 ft | 473 kts | 26° |
| 2026-05-09 14:49 | 0.98432 | -29.92090 | 40964 ft | 473 kts | 26° |
| 2026-05-09 14:49 | 1.04275 | -29.89068 | 40971 ft | 473 kts | 26° |
| 2026-05-09 14:50 | 1.10115 | -29.86047 | 40966 ft | 473 kts | 26° |
| 2026-05-09 14:50 | 1.15918 | -29.83044 | 40963 ft | 473 kts | 26° |
| 2026-05-09 14:51 | 1.21764 | -29.80020 | 40973 ft | 473 kts | 26° |
| 2026-05-09 14:51 | 1.27620 | -29.76990 | 40975 ft | 474 kts | 26° |
| 2026-05-09 14:52 | 1.33473 | -29.73962 | 40951 ft | 475 kts | 26° |
| 2026-05-09 14:52 | 1.39330 | -29.70932 | 40968 ft | 481 kts | 26° |
| 2026-05-09 14:53 | 1.45309 | -29.67815 | 40963 ft | 488 kts | 27° |
| 2026-05-09 14:53 | 1.51338 | -29.64655 | 40961 ft | 489 kts | 27° |
| 2026-05-09 14:54 | 1.57369 | -29.61499 | 40964 ft | 489 kts | 28° |
| 2026-05-09 14:54 | 1.63368 | -29.58360 | 40970 ft | 485 kts | 28° |
| 2026-05-09 14:55 | 1.69283 | -29.55263 | 40949 ft | 482 kts | 28° |
| 2026-05-09 14:55 | 1.75230 | -29.52147 | 40975 ft | 485 kts | 28° |
| 2026-05-09 14:56 | 1.81212 | -29.49014 | 40964 ft | 485 kts | 28° |
| 2026-05-09 14:56 | 1.87188 | -29.45885 | 40962 ft | 485 kts | 28° |
| 2026-05-09 14:57 | 1.93164 | -29.42755 | 40964 ft | 485 kts | 28° |
| 2026-05-09 14:57 | 1.99098 | -29.39646 | 40971 ft | 485 kts | 28° |
| 2026-05-09 14:58 | 2.05075 | -29.36516 | 40964 ft | 485 kts | 28° |
| 2026-05-09 14:58 | 2.11049 | -29.33386 | 40966 ft | 485 kts | 28° |
| 2026-05-09 14:59 | 2.17024 | -29.30255 | 40964 ft | 485 kts | 28° |
| 2026-05-09 14:59 | 2.22956 | -29.27147 | 40967 ft | 485 kts | 28° |
| 2026-05-09 15:00 | 2.28933 | -29.24014 | 40967 ft | 485 kts | 28° |
| 2026-05-09 15:00 | 2.34911 | -29.20881 | 40962 ft | 485 kts | 28° |
| 2026-05-09 15:01 | 2.43833 | -29.16203 | 40969 ft | 485 kts | 28° |
| 2026-05-09 15:02 | 2.49810 | -29.13069 | 40970 ft | 485 kts | 28° |
| 2026-05-09 15:02 | 2.55787 | -29.09935 | 40963 ft | 485 kts | 28° |
| 2026-05-09 15:03 | 2.61760 | -29.06803 | 40963 ft | 485 kts | 28° |
| 2026-05-09 15:03 | 2.67692 | -29.03691 | 40970 ft | 485 kts | 28° |
| 2026-05-09 15:04 | 2.73671 | -29.00556 | 40967 ft | 485 kts | 28° |
| 2026-05-09 15:06 | 2.97534 | -28.88036 | 40965 ft | 485 kts | 28° |
| 2026-05-09 15:06 | 3.03511 | -28.84900 | 40962 ft | 485 kts | 28° |
| 2026-05-09 15:07 | 3.09484 | -28.81765 | 40964 ft | 485 kts | 28° |
| 2026-05-09 15:07 | 3.15459 | -28.78630 | 40971 ft | 485 kts | 28° |
| 2026-05-09 15:08 | 3.21399 | -28.75525 | 40966 ft | 485 kts | 28° |
| 2026-05-09 15:08 | 3.30372 | -28.70833 | 40964 ft | 485 kts | 28° |
| 2026-05-09 15:10 | 3.54261 | -28.58333 | 40964 ft | 485 kts | 28° |
| 2026-05-09 15:11 | 3.60241 | -28.55203 | 40971 ft | 485 kts | 28° |
| 2026-05-09 15:11 | 3.66218 | -28.52074 | 40964 ft | 485 kts | 28° |
| 2026-05-09 15:12 | 3.72198 | -28.48944 | 40963 ft | 485 kts | 28° |
| 2026-05-09 15:12 | 3.78133 | -28.45835 | 40965 ft | 485 kts | 28° |
| 2026-05-09 15:13 | 3.84116 | -28.42701 | 40972 ft | 485 kts | 28° |
| 2026-05-09 15:13 | 3.90094 | -28.39569 | 40968 ft | 485 kts | 28° |
| 2026-05-09 15:14 | 3.95064 | -28.36965 | 40967 ft | 485 kts | 28° |
| 2026-05-09 15:14 | 4.02012 | -28.33325 | 40965 ft | 485 kts | 28° |
| 2026-05-09 15:15 | 4.07024 | -28.30698 | 40964 ft | 485 kts | 28° |
| 2026-05-09 15:15 | 4.13973 | -28.27055 | 40964 ft | 485 kts | 28° |
| 2026-05-09 15:16 | 4.18943 | -28.24450 | 40965 ft | 485 kts | 28° |
| 2026-05-09 15:16 | 4.25890 | -28.20807 | 40968 ft | 485 kts | 28° |
| 2026-05-09 15:17 | 4.31865 | -28.17673 | 40968 ft | 485 kts | 28° |
| 2026-05-09 15:17 | 4.36835 | -28.15066 | 40972 ft | 485 kts | 28° |
| 2026-05-09 15:18 | 4.42817 | -28.11928 | 40964 ft | 485 kts | 28° |
| 2026-05-09 15:18 | 4.48796 | -28.08790 | 40963 ft | 485 kts | 29° |
| 2026-05-09 15:19 | 4.54775 | -28.05653 | 40970 ft | 485 kts | 29° |
| 2026-05-09 15:19 | 4.60752 | -28.02515 | 40971 ft | 485 kts | 29° |
| 2026-05-09 15:20 | 4.69679 | -27.97828 | 40963 ft | 485 kts | 29° |
| 2026-05-09 15:21 | 4.75652 | -27.94691 | 40963 ft | 485 kts | 29° |
| 2026-05-09 15:21 | 4.81631 | -27.91550 | 40967 ft | 485 kts | 29° |
| 2026-05-09 15:22 | 4.87609 | -27.88409 | 40970 ft | 485 kts | 29° |
| 2026-05-09 15:22 | 4.93543 | -27.85289 | 40962 ft | 485 kts | 28° |
| 2026-05-09 15:23 | 4.99518 | -27.82149 | 40970 ft | 485 kts | 28° |
| 2026-05-09 15:23 | 5.05491 | -27.79009 | 40972 ft | 485 kts | 28° |
| 2026-05-09 15:24 | 5.11461 | -27.75870 | 40964 ft | 485 kts | 28° |
| 2026-05-09 15:24 | 5.17429 | -27.72731 | 40963 ft | 485 kts | 28° |
| 2026-05-09 15:25 | 5.23371 | -27.69605 | 40965 ft | 484 kts | 28° |
| 2026-05-09 15:25 | 5.29343 | -27.66463 | 40967 ft | 484 kts | 28° |
| 2026-05-09 15:26 | 5.38295 | -27.61752 | 40963 ft | 485 kts | 28° |
| 2026-05-09 15:26 | 5.44227 | -27.58628 | 40964 ft | 485 kts | 28° |
| 2026-05-09 15:27 | 5.50194 | -27.55487 | 40968 ft | 484 kts | 28° |
| 2026-05-09 15:27 | 5.56164 | -27.52342 | 40964 ft | 485 kts | 28° |
| 2026-05-09 15:28 | 5.62131 | -27.49199 | 40963 ft | 485 kts | 28° |
| 2026-05-09 15:28 | 5.68065 | -27.46072 | 40965 ft | 485 kts | 28° |
| 2026-05-09 15:29 | 5.74035 | -27.42926 | 40967 ft | 485 kts | 28° |
| 2026-05-09 15:29 | 5.80008 | -27.39776 | 40963 ft | 485 kts | 28° |
| 2026-05-09 15:30 | 5.85980 | -27.36627 | 40963 ft | 485 kts | 28° |
| 2026-05-09 15:30 | 5.91911 | -27.33499 | 40969 ft | 485 kts | 28° |
| 2026-05-09 15:31 | 5.97880 | -27.30350 | 40970 ft | 485 kts | 28° |
| 2026-05-09 15:31 | 6.03849 | -27.27200 | 40963 ft | 485 kts | 28° |
| 2026-05-09 15:32 | 6.09818 | -27.24050 | 40995 ft | 485 kts | 28° |
| 2026-05-09 15:32 | 6.15786 | -27.20895 | 41011 ft | 491 kts | 28° |
| 2026-05-09 15:33 | 6.21829 | -27.17702 | 41029 ft | 490 kts | 27° |
| 2026-05-09 15:33 | 6.27866 | -27.14515 | 41033 ft | 490 kts | 27° |
| 2026-05-09 15:34 | 6.33905 | -27.11325 | 41029 ft | 490 kts | 27° |
| 2026-05-09 15:34 | 6.39943 | -27.08134 | 41008 ft | 490 kts | 27° |
| 2026-05-09 15:35 | 6.45936 | -27.04966 | 41010 ft | 490 kts | 27° |
| 2026-05-09 15:35 | 6.51965 | -27.01774 | 41034 ft | 490 kts | 27° |
| 2026-05-09 15:36 | 6.58003 | -26.98578 | 41032 ft | 490 kts | 27° |
| 2026-05-09 15:36 | 6.64035 | -26.95384 | 41009 ft | 490 kts | 27° |
| 2026-05-09 15:37 | 6.70024 | -26.92212 | 41009 ft | 490 kts | 27° |
| 2026-05-09 15:37 | 6.76057 | -26.89016 | 41027 ft | 490 kts | 27° |
| 2026-05-09 15:38 | 6.82090 | -26.85818 | 41032 ft | 490 kts | 27° |
| 2026-05-09 15:38 | 6.88122 | -26.82621 | 41012 ft | 490 kts | 27° |
| 2026-05-09 15:39 | 6.94155 | -26.79422 | 41008 ft | 490 kts | 27° |
| 2026-05-09 15:39 | 7.00152 | -26.76241 | 41016 ft | 490 kts | 27° |
| 2026-05-09 15:40 | 7.06192 | -26.73037 | 41030 ft | 490 kts | 27° |
| 2026-05-09 15:40 | 7.12222 | -26.69836 | 41025 ft | 490 kts | 27° |
| 2026-05-09 15:41 | 7.18214 | -26.66655 | 41008 ft | 490 kts | 27° |
| 2026-05-09 15:41 | 7.24247 | -26.63451 | 41013 ft | 490 kts | 27° |
| 2026-05-09 15:42 | 7.30283 | -26.60243 | 41032 ft | 490 kts | 27° |
| 2026-05-09 15:42 | 7.36305 | -26.57041 | 41013 ft | 488 kts | 26° |
| 2026-05-09 15:43 | 7.42258 | -26.53880 | 41029 ft | 486 kts | 26° |
| 2026-05-09 15:43 | 7.48248 | -26.50696 | 41034 ft | 487 kts | 26° |
| 2026-05-09 15:44 | 7.54239 | -26.47510 | 41014 ft | 487 kts | 26° |
| 2026-05-09 15:44 | 7.60233 | -26.44321 | 41008 ft | 487 kts | 26° |
| 2026-05-09 15:45 | 7.66218 | -26.41136 | 41012 ft | 487 kts | 26° |
| 2026-05-09 15:45 | 7.72167 | -26.37969 | 41032 ft | 486 kts | 26° |
| 2026-05-09 15:46 | 7.78150 | -26.34783 | 41030 ft | 486 kts | 26° |
| 2026-05-09 15:46 | 7.84133 | -26.31596 | 41008 ft | 487 kts | 26° |
| 2026-05-09 15:47 | 7.90116 | -26.28407 | 41009 ft | 486 kts | 27° |
| 2026-05-09 15:47 | 7.96064 | -26.25237 | 41030 ft | 486 kts | 27° |
| 2026-05-09 15:48 | 8.02048 | -26.22046 | 41026 ft | 486 kts | 27° |
| 2026-05-09 15:48 | 8.08033 | -26.18854 | 41010 ft | 487 kts | 27° |
| 2026-05-09 15:49 | 8.14016 | -26.15662 | 41010 ft | 487 kts | 27° |
| 2026-05-09 15:49 | 8.19961 | -26.12489 | 41030 ft | 487 kts | 27° |
| 2026-05-09 15:50 | 8.25945 | -26.09294 | 41032 ft | 487 kts | 27° |
| 2026-05-09 15:50 | 8.31931 | -26.06097 | 41014 ft | 487 kts | 27° |
| 2026-05-09 15:51 | 8.37922 | -26.02897 | 41007 ft | 487 kts | 27° |
| 2026-05-09 15:51 | 8.43868 | -25.99721 | 41013 ft | 487 kts | 27° |
| 2026-05-09 15:52 | 8.52845 | -25.94921 | 41010 ft | 487 kts | 26° |
| 2026-05-09 15:53 | 8.58833 | -25.91722 | 41014 ft | 487 kts | 26° |
| 2026-05-09 15:53 | 8.64819 | -25.88521 | 41029 ft | 486 kts | 26° |
| 2026-05-09 15:54 | 8.70761 | -25.85342 | 41030 ft | 487 kts | 26° |
| 2026-05-09 15:54 | 8.76744 | -25.82139 | 41009 ft | 487 kts | 26° |
| 2026-05-09 15:55 | 8.82726 | -25.78936 | 41011 ft | 487 kts | 26° |
| 2026-05-09 15:55 | 8.88710 | -25.75731 | 41032 ft | 486 kts | 26° |
| 2026-05-09 15:56 | 8.94652 | -25.72547 | 41032 ft | 486 kts | 26° |
| 2026-05-09 15:56 | 9.00634 | -25.69340 | 41010 ft | 487 kts | 26° |
| 2026-05-09 15:57 | 9.06612 | -25.66135 | 41009 ft | 487 kts | 26° |
| 2026-05-09 15:57 | 9.12594 | -25.62925 | 41028 ft | 486 kts | 26° |
| 2026-05-09 15:58 | 9.18534 | -25.59738 | 41034 ft | 486 kts | 26° |
| 2026-05-09 15:58 | 9.24514 | -25.56527 | 41011 ft | 487 kts | 26° |
| 2026-05-09 15:59 | 9.30494 | -25.53315 | 41011 ft | 487 kts | 26° |
| 2026-05-09 15:59 | 9.36473 | -25.50103 | 41031 ft | 486 kts | 26° |
| 2026-05-09 16:00 | 9.42455 | -25.46888 | 41033 ft | 486 kts | 26° |
| 2026-05-09 16:00 | 9.48395 | -25.43694 | 41014 ft | 487 kts | 26° |
| 2026-05-09 16:01 | 9.54371 | -25.40479 | 41009 ft | 487 kts | 26° |
| 2026-05-09 16:01 | 9.60354 | -25.37260 | 41030 ft | 487 kts | 26° |
| 2026-05-09 16:02 | 9.66332 | -25.34041 | 41014 ft | 487 kts | 26° |
| 2026-05-09 16:02 | 9.75348 | -25.29186 | 41014 ft | 492 kts | 26° |
| 2026-05-09 16:03 | 9.81388 | -25.25931 | 41031 ft | 492 kts | 26° |
| 2026-05-09 16:03 | 9.87429 | -25.22674 | 41033 ft | 492 kts | 26° |
| 2026-05-09 16:04 | 9.93474 | -25.19414 | 41009 ft | 492 kts | 26° |
| 2026-05-09 16:04 | 9.99472 | -25.16172 | 41009 ft | 492 kts | 26° |
| 2026-05-09 16:05 | 10.05509 | -25.12909 | 41028 ft | 492 kts | 26° |
| 2026-05-09 16:05 | 10.11549 | -25.09646 | 41028 ft | 492 kts | 26° |
| 2026-05-09 16:06 | 10.17583 | -25.06383 | 41012 ft | 492 kts | 26° |
| 2026-05-09 16:06 | 10.23582 | -25.03137 | 41008 ft | 492 kts | 26° |
| 2026-05-09 16:07 | 10.29615 | -24.99872 | 41029 ft | 492 kts | 26° |
| 2026-05-09 16:07 | 10.35654 | -24.96601 | 41033 ft | 492 kts | 26° |
| 2026-05-09 16:08 | 10.41652 | -24.93352 | 41014 ft | 492 kts | 26° |
| 2026-05-09 16:08 | 10.47686 | -24.90082 | 41009 ft | 492 kts | 26° |
| 2026-05-09 16:09 | 10.53722 | -24.86809 | 41014 ft | 492 kts | 26° |
| 2026-05-09 16:09 | 10.59760 | -24.83534 | 41033 ft | 492 kts | 26° |
| 2026-05-09 16:10 | 10.65794 | -24.80259 | 41013 ft | 492 kts | 26° |
| 2026-05-09 16:10 | 10.71789 | -24.77004 | 41010 ft | 492 kts | 26° |
| 2026-05-09 16:11 | 10.77828 | -24.73724 | 41016 ft | 492 kts | 26° |
| 2026-05-09 16:11 | 10.83860 | -24.70445 | 41032 ft | 492 kts | 26° |
| 2026-05-09 16:12 | 10.89910 | -24.67154 | 41012 ft | 496 kts | 25° |
| 2026-05-09 16:12 | 10.95964 | -24.63863 | 41011 ft | 496 kts | 25° |
| 2026-05-09 16:13 | 11.02044 | -24.60555 | 41026 ft | 496 kts | 25° |
| 2026-05-09 16:13 | 11.08132 | -24.57240 | 41031 ft | 496 kts | 25° |
| 2026-05-09 16:14 | 11.14175 | -24.53948 | 41011 ft | 496 kts | 25° |
| 2026-05-09 16:14 | 11.20260 | -24.50632 | 41009 ft | 496 kts | 25° |
| 2026-05-09 16:15 | 11.26344 | -24.47315 | 41029 ft | 496 kts | 25° |
| 2026-05-09 16:15 | 11.32428 | -24.43996 | 41034 ft | 496 kts | 25° |
| 2026-05-09 16:16 | 11.38471 | -24.40697 | 41014 ft | 496 kts | 25° |
| 2026-05-09 16:16 | 11.44553 | -24.37377 | 41008 ft | 496 kts | 25° |
| 2026-05-09 16:17 | 11.50636 | -24.34054 | 41017 ft | 496 kts | 25° |
| 2026-05-09 16:17 | 11.56720 | -24.30728 | 41032 ft | 496 kts | 26° |
| 2026-05-09 16:18 | 11.62801 | -24.27403 | 41026 ft | 496 kts | 25° |
| 2026-05-09 16:18 | 11.68841 | -24.24098 | 41012 ft | 496 kts | 25° |
| 2026-05-09 16:19 | 11.74924 | -24.20769 | 41011 ft | 496 kts | 25° |
| 2026-05-09 16:19 | 11.81004 | -24.17439 | 41031 ft | 496 kts | 26° |
| 2026-05-09 16:20 | 11.87084 | -24.14107 | 41032 ft | 496 kts | 26° |
| 2026-05-09 16:20 | 11.93120 | -24.10798 | 41012 ft | 496 kts | 26° |
| 2026-05-09 16:21 | 11.99201 | -24.07463 | 41011 ft | 496 kts | 26° |
| 2026-05-09 16:21 | 12.05283 | -24.04125 | 41032 ft | 496 kts | 26° |
| 2026-05-09 16:22 | 12.11338 | -24.00799 | 41026 ft | 490 kts | 26° |
| 2026-05-09 16:22 | 12.17295 | -23.97527 | 41011 ft | 491 kts | 26° |
| 2026-05-09 16:23 | 12.23313 | -23.94220 | 41012 ft | 491 kts | 26° |
| 2026-05-09 16:23 | 12.29328 | -23.90912 | 41029 ft | 491 kts | 26° |
| 2026-05-09 16:24 | 12.35341 | -23.87604 | 41030 ft | 491 kts | 26° |
| 2026-05-09 16:24 | 12.41316 | -23.84314 | 41028 ft | 491 kts | 26° |
| 2026-05-09 16:25 | 12.47330 | -23.81002 | 41010 ft | 491 kts | 26° |
| 2026-05-09 16:25 | 12.53348 | -23.77686 | 41014 ft | 491 kts | 26° |
| 2026-05-09 16:26 | 12.59366 | -23.74368 | 41034 ft | 491 kts | 26° |
| 2026-05-09 16:26 | 12.65341 | -23.71071 | 41028 ft | 491 kts | 26° |
| 2026-05-09 16:27 | 12.71356 | -23.67751 | 41010 ft | 491 kts | 26° |
| 2026-05-09 16:27 | 12.77375 | -23.64427 | 41013 ft | 491 kts | 26° |
| 2026-05-09 16:28 | 12.83389 | -23.61104 | 41032 ft | 491 kts | 26° |
| 2026-05-09 16:28 | 12.89360 | -23.57803 | 41033 ft | 491 kts | 26° |
| 2026-05-09 16:29 | 12.95375 | -23.54475 | 41012 ft | 491 kts | 26° |
| 2026-05-09 16:29 | 13.01387 | -23.51148 | 41011 ft | 491 kts | 26° |
| 2026-05-09 16:30 | 13.07397 | -23.47819 | 41032 ft | 491 kts | 26° |
| 2026-05-09 16:30 | 13.13408 | -23.44489 | 41031 ft | 491 kts | 26° |
| 2026-05-09 16:31 | 13.19376 | -23.41180 | 41013 ft | 491 kts | 26° |
| 2026-05-09 16:31 | 13.25385 | -23.37846 | 41011 ft | 491 kts | 26° |
| 2026-05-09 16:32 | 13.30379 | -23.35078 | 41011 ft | 491 kts | 26° |
| 2026-05-09 16:32 | 13.37362 | -23.31201 | 41032 ft | 491 kts | 26° |
| 2026-05-09 16:33 | 13.43363 | -23.27867 | 41011 ft | 491 kts | 26° |
| 2026-05-09 16:33 | 13.49362 | -23.24532 | 41011 ft | 491 kts | 26° |
| 2026-05-09 16:34 | 13.55370 | -23.21191 | 41030 ft | 490 kts | 26° |
| 2026-05-09 16:34 | 13.61330 | -23.17876 | 41028 ft | 490 kts | 26° |
| 2026-05-09 16:35 | 13.67331 | -23.14538 | 41012 ft | 491 kts | 26° |
| 2026-05-09 16:35 | 13.73333 | -23.11197 | 41009 ft | 491 kts | 26° |
| 2026-05-09 16:36 | 13.85296 | -23.04532 | 41033 ft | 490 kts | 26° |
| 2026-05-09 16:37 | 13.91294 | -23.01188 | 41011 ft | 491 kts | 26° |
| 2026-05-09 16:37 | 13.97295 | -22.97839 | 41009 ft | 491 kts | 26° |
| 2026-05-09 16:38 | 14.03293 | -22.94491 | 41031 ft | 490 kts | 26° |
| 2026-05-09 16:38 | 14.09291 | -22.91140 | 41029 ft | 490 kts | 26° |
| 2026-05-09 16:39 | 14.15248 | -22.87810 | 41010 ft | 491 kts | 26° |
| 2026-05-09 16:39 | 14.21248 | -22.84454 | 41011 ft | 491 kts | 26° |
| 2026-05-09 16:40 | 14.27247 | -22.81097 | 41030 ft | 490 kts | 26° |